Hakuryoumaru No.15 — JD2439 — position and weather

sailwx.info

Track history (hours):
 
Tides and Currents Weather Stations Pressure Air Temp Water Temp Dewpoint Dewpoint Depression Visibility Wind Speed Wind Dir Waves Ship Positions

Hakuryoumaru No.15

Last reported at 2015-Aug-29 22:31 UTC. Time now 2015-Aug-29 23:32 UTC.
Position N 35°31' E 139°59'.

Length 80 m; draft 5.4 m.

Type: Tanker. MMSI: 431000243.

Date/timePositionNaut miles runAvg speedWind from/ knotsBaromVisibWave heightAir tempDewpointWater temp
2015-Aug-29 22:31N 35°31' E 139°59'0 0.0
2015-Aug-29 21:19N 35°31' E 139°59'0 0.1
2015-Aug-29 20:28N 35°31' E 139°59'0 0.1
2015-Aug-29 19:31N 35°31' E 139°59'0 0.0
2015-Aug-29 18:22N 35°31' E 139°59'0 0.1
2015-Aug-29 17:31N 35°31' E 139°59'0 0.0
2015-Aug-29 16:31N 35°31' E 139°59'0 0.0
2015-Aug-29 15:31N 35°31' E 139°59'0 0.0
2015-Aug-29 14:31N 35°31' E 139°59'0 0.0
2015-Aug-29 13:31N 35°31' E 139°59'0 0.0
2015-Aug-29 12:25N 35°31' E 139°59'5 6.2
2015-Aug-29 11:33N 35°29' E 139°53'1211.7
2015-Aug-29 10:33N 35°20' E 139°44'1311.6
2015-Aug-29 09:28N 35°07' E 139°45'4 0.1
2015-Aug-28 03:21N 35°11' E 139°45'911.6
2015-Aug-28 02:34N 35°20' E 139°43'1211.8
2015-Aug-28 01:33N 35°29' E 139°51'9 8.7
2015-Aug-28 00:33N 35°30' E 140°02'0 0.0
2015-Aug-27 23:33N 35°30' E 140°02'0 0.0
2015-Aug-27 22:33N 35°30' E 140°02'3 2.5
2015-Aug-27 21:30N 35°31' E 139°59'0 0.0
2015-Aug-27 20:33N 35°31' E 139°59'0 0.0
2015-Aug-27 19:30N 35°31' E 139°59'0 0.0
2015-Aug-27 18:33N 35°31' E 139°59'0 0.0
2015-Aug-27 17:33N 35°31' E 139°59'0 0.0
2015-Aug-27 16:33N 35°31' E 139°59'0 0.0
2015-Aug-27 15:33N 35°31' E 139°59'0 0.0
2015-Aug-27 14:33N 35°31' E 139°59'0 0.0
2015-Aug-27 13:33N 35°31' E 139°59'0 0.0
2015-Aug-27 12:27N 35°31' E 139°59'0 0.0
2015-Aug-27 11:33N 35°31' E 139°59'0 0.0
2015-Aug-27 10:23N 35°31' E 139°59'8 9.8
2015-Aug-27 09:33N 35°27' E 139°50'1111.2
2015-Aug-27 08:33N 35°17' E 139°46'1211.9
2015-Aug-27 07:33N 35°05' E 139°42'6 0.2
2015-Aug-26 06:33N 35°04' E 139°35'1212.1
2015-Aug-26 05:33N 35°12' E 139°46'1212.0
2015-Aug-26 04:33N 35°24' E 139°43'1212.3
2015-Aug-26 03:33N 35°32' E 139°54'4 3.7
2015-Aug-26 02:32N 35°36' E 139°56'0 0.0
2015-Aug-26 01:32N 35°36' E 139°56'0 0.0
2015-Aug-26 00:32N 35°36' E 139°56'0 0.0
2015-Aug-25 23:32N 35°36' E 139°56'0 0.0
2015-Aug-25 22:32N 35°36' E 139°56'0 0.0
2015-Aug-25 21:26N 35°36' E 139°56'0 0.0
2015-Aug-25 20:32N 35°36' E 139°56'0 0.0
2015-Aug-25 19:32N 35°36' E 139°56'0 0.0
2015-Aug-25 18:32N 35°36' E 139°56'0 0.0
2015-Aug-25 17:32N 35°36' E 139°56'0 0.0
2015-Aug-25 16:32N 35°36' E 139°56'0 0.0
2015-Aug-25 15:32N 35°36' E 139°56'0 0.0
2015-Aug-25 14:29N 35°36' E 139°56'0 0.0
2015-Aug-25 13:32N 35°36' E 139°56'0 0.0
2015-Aug-25 12:32N 35°36' E 139°56'0 0.0
2015-Aug-25 11:32N 35°36' E 139°56'0 0.0
2015-Aug-25 10:32N 35°36' E 139°56'0 0.0
2015-Aug-25 09:29N 35°36' E 139°56'0 0.0
2015-Aug-25 08:29N 35°36' E 139°56'0 0.0
2015-Aug-25 07:32N 35°36' E 139°56'0 0.0
2015-Aug-25 06:32N 35°36' E 139°56'0 0.0
2015-Aug-25 05:32N 35°36' E 139°56'0 0.0
2015-Aug-25 04:32N 35°36' E 139°56'0 0.0
2015-Aug-25 03:32N 35°36' E 139°56'0 0.0
2015-Aug-25 02:26N 35°36' E 139°56'0 0.0
2015-Aug-25 01:32N 35°36' E 139°56'0 0.0
2015-Aug-25 00:32N 35°36' E 139°56'0 0.0
2015-Aug-24 23:29N 35°36' E 139°56'0 0.0
2015-Aug-24 22:32N 35°36' E 139°56'0 0.0
2015-Aug-24 21:32N 35°36' E 139°56'0 0.0
2015-Aug-24 20:32N 35°36' E 139°56'0 0.0
2015-Aug-24 19:32N 35°36' E 139°56'0 0.0
2015-Aug-24 18:32N 35°36' E 139°56'0 0.0
2015-Aug-24 17:32N 35°36' E 139°56'0 0.0
2015-Aug-24 16:32N 35°36' E 139°56'0 0.0
2015-Aug-24 15:32N 35°36' E 139°56'0 0.0
2015-Aug-24 14:32N 35°36' E 139°56'0 0.0
2015-Aug-24 13:23N 35°36' E 139°56'0 0.1
2015-Aug-24 12:32N 35°36' E 139°56'0 0.0
2015-Aug-24 11:32N 35°36' E 139°56'0 0.0
2015-Aug-24 10:29N 35°36' E 139°56'0 0.0
2015-Aug-24 09:32N 35°36' E 139°56'0 0.0
2015-Aug-24 08:29N 35°36' E 139°56'0 0.0
2015-Aug-24 07:29N 35°36' E 139°56'0 0.0
2015-Aug-24 06:29N 35°36' E 139°56'0 0.0
2015-Aug-24 05:32N 35°36' E 139°56'0 0.0
2015-Aug-24 04:26N 35°36' E 139°56'0 0.0
2015-Aug-24 03:26N 35°36' E 139°56'0 0.0
2015-Aug-24 02:32N 35°36' E 139°56'0 0.0
2015-Aug-24 01:32N 35°36' E 139°56'0 0.0
2015-Aug-24 00:29N 35°36' E 139°56'0 0.0
2015-Aug-23 23:26N 35°36' E 139°56'0 0.0
2015-Aug-23 22:20N 35°36' E 139°56'0 0.0
2015-Aug-23 21:29N 35°36' E 139°56'0 0.0
2015-Aug-23 20:32N 35°36' E 139°56'0 0.0
2015-Aug-23 19:32N 35°36' E 139°56'0 0.0
2015-Aug-23 18:32N 35°36' E 139°56'0 0.0
2015-Aug-23 17:29N 35°36' E 139°56'0 0.0
2015-Aug-23 16:29N 35°36' E 139°56'0 0.0
2015-Aug-23 15:32N 35°36' E 139°56'0 0.0
2015-Aug-23 14:29N 35°36' E 139°56'0 0.0
2015-Aug-23 13:32N 35°36' E 139°56'0 0.0
2015-Aug-23 12:26N 35°36' E 139°56'0 0.0
2015-Aug-23 11:32N 35°36' E 139°56'0 0.0
2015-Aug-23 10:32N 35°36' E 139°56'0 0.0
2015-Aug-23 09:29N 35°36' E 139°56'0 0.0
2015-Aug-23 08:32N 35°36' E 139°56'0 0.0
2015-Aug-23 07:32N 35°36' E 139°56'0 0.0
2015-Aug-23 06:23N 35°36' E 139°56'0 0.0
2015-Aug-23 05:29N 35°36' E 139°56'0 0.0
2015-Aug-23 04:29N 35°36' E 139°56'0 0.0
2015-Aug-23 03:32N 35°36' E 139°56'0 0.0
2015-Aug-23 02:32N 35°36' E 139°56'0 0.0
2015-Aug-23 01:29N 35°36' E 139°56'0 0.0
2015-Aug-23 00:32N 35°36' E 139°56'0 0.0
2015-Aug-22 23:32N 35°36' E 139°56'0 0.0
2015-Aug-22 22:26N 35°36' E 139°56'0 0.0
2015-Aug-22 21:32N 35°36' E 139°56'0 0.0
2015-Aug-22 20:32N 35°36' E 139°56'0 0.0
2015-Aug-22 19:32N 35°36' E 139°56'0 0.0
2015-Aug-22 18:29N 35°36' E 139°56'0 0.1
2015-Aug-22 17:32N 35°36' E 139°56'0 0.0
2015-Aug-22 16:32N 35°36' E 139°56'0 0.0
2015-Aug-22 14:26N 35°36' E 139°56'0 0.0
2015-Aug-22 13:32N 35°36' E 139°56'0 0.0
2015-Aug-22 12:29N 35°36' E 139°56'0 0.0
2015-Aug-22 11:32N 35°36' E 139°56'0 0.0
2015-Aug-22 10:32N 35°36' E 139°56'0 0.0
2015-Aug-22 09:32N 35°36' E 139°56'0 0.0
2015-Aug-22 08:32N 35°36' E 139°56'0 0.0
2015-Aug-22 07:32N 35°36' E 139°56'0 0.0
2015-Aug-22 06:32N 35°36' E 139°56'0 0.0
2015-Aug-22 05:29N 35°36' E 139°56'0 0.0
2015-Aug-22 04:29N 35°36' E 139°56'0 0.0
2015-Aug-22 03:32N 35°36' E 139°56'0 0.0
2015-Aug-22 02:32N 35°36' E 139°56'0 0.0
2015-Aug-22 01:29N 35°36' E 139°56'0 0.0
2015-Aug-22 00:26N 35°36' E 139°56'0 0.0
2015-Aug-21 23:32N 35°36' E 139°56'0 0.0
2015-Aug-21 22:26N 35°36' E 139°56'0 0.0
2015-Aug-21 21:32N 35°36' E 139°56'0 0.0
2015-Aug-21 20:29N 35°36' E 139°56'0 0.0
2015-Aug-21 19:32N 35°36' E 139°56'0 0.0
2015-Aug-21 18:32N 35°36' E 139°56'0 0.0
2015-Aug-21 17:32N 35°36' E 139°56'0 0.0
2015-Aug-21 16:23N 35°36' E 139°56'0 0.0
2015-Aug-21 15:29N 35°36' E 139°56'0 0.0
2015-Aug-21 14:29N 35°36' E 139°56'0 0.0
2015-Aug-21 13:23N 35°36' E 139°56'0 0.0
2015-Aug-21 12:32N 35°36' E 139°56'0 0.0
2015-Aug-21 11:29N 35°36' E 139°56'0 0.0
2015-Aug-21 10:32N 35°36' E 139°56'0 0.0
2015-Aug-21 09:29N 35°36' E 139°56'0 0.0
2015-Aug-21 08:32N 35°36' E 139°56'0 0.0
2015-Aug-21 07:32N 35°36' E 139°56'0 0.0
2015-Aug-21 06:32N 35°36' E 139°56'0 0.0
2015-Aug-21 05:29N 35°36' E 139°56'0 0.0
2015-Aug-21 04:32N 35°36' E 139°56'5 5.2
2015-Aug-21 03:34N 35°32' E 139°59'3 2.8
2015-Aug-21 02:34N 35°30' E 140°02'0 0.0
2015-Aug-21 01:34N 35°30' E 140°02'0 0.0
2015-Aug-21 00:34N 35°30' E 140°02'0 0.0
2015-Aug-20 23:33N 35°30' E 140°02'3 2.6
2015-Aug-20 22:33N 35°31' E 139°59'0 0.0
2015-Aug-20 21:23N 35°31' E 139°59'0 0.1
2015-Aug-20 20:29N 35°31' E 139°59'1 0.4
2015-Aug-20 18:33N 35°31' E 139°58'1212.4
2015-Aug-20 17:33N 35°23' E 139°46'1211.9
2015-Aug-20 16:33N 35°12' E 139°47'1512.8
2015-Aug-20 15:25N 34°57' E 139°43'19 9.9
2015-Aug-20 13:27N 34°59' E 140°07'2511.4
2015-Aug-20 11:17N 35°15' E 140°30'1213.2
2015-Aug-20 10:22N 35°24' E 140°39'  
Track history (hours):
 
Tides and Currents Weather Stations Pressure Air Temp Water Temp Dewpoint Dewpoint Depression Visibility Wind Speed Wind Dir Waves Ship Positions

Hakuryoumaru No.15

Last reported at 2015-Aug-29 22:31 UTC. Time now 2015-Aug-29 23:32 UTC.
Position N 35°31' E 139°59'.

Length 80 m; draft 5.4 m.

Type: Tanker. MMSI: 431000243.

Date/timePositionNaut miles runAvg speedWind from/ knotsBaromVisibWave heightAir tempDewpointWater temp
2015-Aug-29 22:31N 35°31' E 139°59'0 0.0
2015-Aug-29 21:19N 35°31' E 139°59'0 0.1
2015-Aug-29 20:28N 35°31' E 139°59'0 0.1
2015-Aug-29 19:31N 35°31' E 139°59'0 0.0
2015-Aug-29 18:22N 35°31' E 139°59'0 0.1
2015-Aug-29 17:31N 35°31' E 139°59'0 0.0
2015-Aug-29 16:31N 35°31' E 139°59'0 0.0
2015-Aug-29 15:31N 35°31' E 139°59'0 0.0
2015-Aug-29 14:31N 35°31' E 139°59'0 0.0
2015-Aug-29 13:31N 35°31' E 139°59'0 0.0
2015-Aug-29 12:25N 35°31' E 139°59'5 6.2
2015-Aug-29 11:33N 35°29' E 139°53'1211.7
2015-Aug-29 10:33N 35°20' E 139°44'1311.6
2015-Aug-29 09:28N 35°07' E 139°45'4 0.1
2015-Aug-28 03:21N 35°11' E 139°45'911.6
2015-Aug-28 02:34N 35°20' E 139°43'1211.8
2015-Aug-28 01:33N 35°29' E 139°51'9 8.7
2015-Aug-28 00:33N 35°30' E 140°02'0 0.0
2015-Aug-27 23:33N 35°30' E 140°02'0 0.0
2015-Aug-27 22:33N 35°30' E 140°02'3 2.5
2015-Aug-27 21:30N 35°31' E 139°59'0 0.0
2015-Aug-27 20:33N 35°31' E 139°59'0 0.0
2015-Aug-27 19:30N 35°31' E 139°59'0 0.0
2015-Aug-27 18:33N 35°31' E 139°59'0 0.0
2015-Aug-27 17:33N 35°31' E 139°59'0 0.0
2015-Aug-27 16:33N 35°31' E 139°59'0 0.0
2015-Aug-27 15:33N 35°31' E 139°59'0 0.0
2015-Aug-27 14:33N 35°31' E 139°59'0 0.0
2015-Aug-27 13:33N 35°31' E 139°59'0 0.0
2015-Aug-27 12:27N 35°31' E 139°59'0 0.0
2015-Aug-27 11:33N 35°31' E 139°59'0 0.0
2015-Aug-27 10:23N 35°31' E 139°59'8 9.8
2015-Aug-27 09:33N 35°27' E 139°50'1111.2
2015-Aug-27 08:33N 35°17' E 139°46'1211.9
2015-Aug-27 07:33N 35°05' E 139°42'6 0.2
2015-Aug-26 06:33N 35°04' E 139°35'1212.1
2015-Aug-26 05:33N 35°12' E 139°46'1212.0
2015-Aug-26 04:33N 35°24' E 139°43'1212.3
2015-Aug-26 03:33N 35°32' E 139°54'4 3.7
2015-Aug-26 02:32N 35°36' E 139°56'0 0.0
2015-Aug-26 01:32N 35°36' E 139°56'0 0.0
2015-Aug-26 00:32N 35°36' E 139°56'0 0.0
2015-Aug-25 23:32N 35°36' E 139°56'0 0.0
2015-Aug-25 22:32N 35°36' E 139°56'0 0.0
2015-Aug-25 21:26N 35°36' E 139°56'0 0.0
2015-Aug-25 20:32N 35°36' E 139°56'0 0.0
2015-Aug-25 19:32N 35°36' E 139°56'0 0.0
2015-Aug-25 18:32N 35°36' E 139°56'0 0.0
2015-Aug-25 17:32N 35°36' E 139°56'0 0.0
2015-Aug-25 16:32N 35°36' E 139°56'0 0.0
2015-Aug-25 15:32N 35°36' E 139°56'0 0.0
2015-Aug-25 14:29N 35°36' E 139°56'0 0.0
2015-Aug-25 13:32N 35°36' E 139°56'0 0.0
2015-Aug-25 12:32N 35°36' E 139°56'0 0.0
2015-Aug-25 11:32N 35°36' E 139°56'0 0.0
2015-Aug-25 10:32N 35°36' E 139°56'0 0.0
2015-Aug-25 09:29N 35°36' E 139°56'0 0.0
2015-Aug-25 08:29N 35°36' E 139°56'0 0.0
2015-Aug-25 07:32N 35°36' E 139°56'0 0.0
2015-Aug-25 06:32N 35°36' E 139°56'0 0.0
2015-Aug-25 05:32N 35°36' E 139°56'0 0.0
2015-Aug-25 04:32N 35°36' E 139°56'0 0.0
2015-Aug-25 03:32N 35°36' E 139°56'0 0.0
2015-Aug-25 02:26N 35°36' E 139°56'0 0.0
2015-Aug-25 01:32N 35°36' E 139°56'0 0.0
2015-Aug-25 00:32N 35°36' E 139°56'0 0.0
2015-Aug-24 23:29N 35°36' E 139°56'0 0.0
2015-Aug-24 22:32N 35°36' E 139°56'0 0.0
2015-Aug-24 21:32N 35°36' E 139°56'0 0.0
2015-Aug-24 20:32N 35°36' E 139°56'0 0.0
2015-Aug-24 19:32N 35°36' E 139°56'0 0.0
2015-Aug-24 18:32N 35°36' E 139°56'0 0.0
2015-Aug-24 17:32N 35°36' E 139°56'0 0.0
2015-Aug-24 16:32N 35°36' E 139°56'0 0.0
2015-Aug-24 15:32N 35°36' E 139°56'0 0.0
2015-Aug-24 14:32N 35°36' E 139°56'0 0.0
2015-Aug-24 13:23N 35°36' E 139°56'0 0.1
2015-Aug-24 12:32N 35°36' E 139°56'0 0.0
2015-Aug-24 11:32N 35°36' E 139°56'0 0.0
2015-Aug-24 10:29N 35°36' E 139°56'0 0.0
2015-Aug-24 09:32N 35°36' E 139°56'0 0.0
2015-Aug-24 08:29N 35°36' E 139°56'0 0.0
2015-Aug-24 07:29N 35°36' E 139°56'0 0.0
2015-Aug-24 06:29N 35°36' E 139°56'0 0.0
2015-Aug-24 05:32N 35°36' E 139°56'0 0.0
2015-Aug-24 04:26N 35°36' E 139°56'0 0.0
2015-Aug-24 03:26N 35°36' E 139°56'0 0.0
2015-Aug-24 02:32N 35°36' E 139°56'0 0.0
2015-Aug-24 01:32N 35°36' E 139°56'0 0.0
2015-Aug-24 00:29N 35°36' E 139°56'0 0.0
2015-Aug-23 23:26N 35°36' E 139°56'0 0.0
2015-Aug-23 22:20N 35°36' E 139°56'0 0.0
2015-Aug-23 21:29N 35°36' E 139°56'0 0.0
2015-Aug-23 20:32N 35°36' E 139°56'0 0.0
2015-Aug-23 19:32N 35°36' E 139°56'0 0.0
2015-Aug-23 18:32N 35°36' E 139°56'0 0.0
2015-Aug-23 17:29N 35°36' E 139°56'0 0.0
2015-Aug-23 16:29N 35°36' E 139°56'0 0.0
2015-Aug-23 15:32N 35°36' E 139°56'0 0.0
2015-Aug-23 14:29N 35°36' E 139°56'0 0.0
2015-Aug-23 13:32N 35°36' E 139°56'0 0.0
2015-Aug-23 12:26N 35°36' E 139°56'0 0.0
2015-Aug-23 11:32N 35°36' E 139°56'0 0.0
2015-Aug-23 10:32N 35°36' E 139°56'0 0.0
2015-Aug-23 09:29N 35°36' E 139°56'0 0.0
2015-Aug-23 08:32N 35°36' E 139°56'0 0.0
2015-Aug-23 07:32N 35°36' E 139°56'0 0.0
2015-Aug-23 06:23N 35°36' E 139°56'0 0.0
2015-Aug-23 05:29N 35°36' E 139°56'0 0.0
2015-Aug-23 04:29N 35°36' E 139°56'0 0.0
2015-Aug-23 03:32N 35°36' E 139°56'0 0.0
2015-Aug-23 02:32N 35°36' E 139°56'0 0.0
2015-Aug-23 01:29N 35°36' E 139°56'0 0.0
2015-Aug-23 00:32N 35°36' E 139°56'0 0.0
2015-Aug-22 23:32N 35°36' E 139°56'0 0.0
2015-Aug-22 22:26N 35°36' E 139°56'0 0.0
2015-Aug-22 21:32N 35°36' E 139°56'0 0.0
2015-Aug-22 20:32N 35°36' E 139°56'0 0.0
2015-Aug-22 19:32N 35°36' E 139°56'0 0.0
2015-Aug-22 18:29N 35°36' E 139°56'0 0.1
2015-Aug-22 17:32N 35°36' E 139°56'0 0.0
2015-Aug-22 16:32N 35°36' E 139°56'0 0.0
2015-Aug-22 14:26N 35°36' E 139°56'0 0.0
2015-Aug-22 13:32N 35°36' E 139°56'0 0.0
2015-Aug-22 12:29N 35°36' E 139°56'0 0.0
2015-Aug-22 11:32N 35°36' E 139°56'0 0.0
2015-Aug-22 10:32N 35°36' E 139°56'0 0.0
2015-Aug-22 09:32N 35°36' E 139°56'0 0.0
2015-Aug-22 08:32N 35°36' E 139°56'0 0.0
2015-Aug-22 07:32N 35°36' E 139°56'0 0.0
2015-Aug-22 06:32N 35°36' E 139°56'0 0.0
2015-Aug-22 05:29N 35°36' E 139°56'0 0.0
2015-Aug-22 04:29N 35°36' E 139°56'0 0.0
2015-Aug-22 03:32N 35°36' E 139°56'0 0.0
2015-Aug-22 02:32N 35°36' E 139°56'0 0.0
2015-Aug-22 01:29N 35°36' E 139°56'0 0.0
2015-Aug-22 00:26N 35°36' E 139°56'0 0.0
2015-Aug-21 23:32N 35°36' E 139°56'0 0.0
2015-Aug-21 22:26N 35°36' E 139°56'0 0.0
2015-Aug-21 21:32N 35°36' E 139°56'0 0.0
2015-Aug-21 20:29N 35°36' E 139°56'0 0.0
2015-Aug-21 19:32N 35°36' E 139°56'0 0.0
2015-Aug-21 18:32N 35°36' E 139°56'0 0.0
2015-Aug-21 17:32N 35°36' E 139°56'0 0.0
2015-Aug-21 16:23N 35°36' E 139°56'0 0.0
2015-Aug-21 15:29N 35°36' E 139°56'0 0.0
2015-Aug-21 14:29N 35°36' E 139°56'0 0.0
2015-Aug-21 13:23N 35°36' E 139°56'0 0.0
2015-Aug-21 12:32N 35°36' E 139°56'0 0.0
2015-Aug-21 11:29N 35°36' E 139°56'0 0.0
2015-Aug-21 10:32N 35°36' E 139°56'0 0.0
2015-Aug-21 09:29N 35°36' E 139°56'0 0.0
2015-Aug-21 08:32N 35°36' E 139°56'0 0.0
2015-Aug-21 07:32N 35°36' E 139°56'0 0.0
2015-Aug-21 06:32N 35°36' E 139°56'0 0.0
2015-Aug-21 05:29N 35°36' E 139°56'0 0.0
2015-Aug-21 04:32N 35°36' E 139°56'5 5.2
2015-Aug-21 03:34N 35°32' E 139°59'3 2.8
2015-Aug-21 02:34N 35°30' E 140°02'0 0.0
2015-Aug-21 01:34N 35°30' E 140°02'0 0.0
2015-Aug-21 00:34N 35°30' E 140°02'0 0.0
2015-Aug-20 23:33N 35°30' E 140°02'3 2.6
2015-Aug-20 22:33N 35°31' E 139°59'0 0.0
2015-Aug-20 21:23N 35°31' E 139°59'0 0.1
2015-Aug-20 20:29N 35°31' E 139°59'1 0.4
2015-Aug-20 18:33N 35°31' E 139°58'1212.4
2015-Aug-20 17:33N 35°23' E 139°46'1211.9
2015-Aug-20 16:33N 35°12' E 139°47'1512.8
2015-Aug-20 15:25N 34°57' E 139°43'19 9.9
2015-Aug-20 13:27N 34°59' E 140°07'2511.4
2015-Aug-20 11:17N 35°15' E 140°30'1213.2
2015-Aug-20 10:22N 35°24' E 140°39'  

Dump ship's entire track history